sensor_id;sensor_type;location;lat;lon;timestamp;temperature;humidity
25328;DHT22;13279;51.300;12.394;2022-11-24T00:00:08;3.20;99.90
25328;DHT22;13279;51.300;12.394;2022-11-24T00:02:36;3.20;99.90
25328;DHT22;13279;51.300;12.394;2022-11-24T00:05:04;3.20;99.90
25328;DHT22;13279;51.300;12.394;2022-11-24T00:07:32;3.20;99.90
25328;DHT22;13279;51.300;12.394;2022-11-24T00:10:01;3.20;99.90
25328;DHT22;13279;51.300;12.394;2022-11-24T00:12:28;3.20;99.90
25328;DHT22;13279;51.300;12.394;2022-11-24T00:14:56;3.20;99.90
25328;DHT22;13279;51.300;12.394;2022-11-24T00:17:24;3.10;99.90
25328;DHT22;13279;51.300;12.394;2022-11-24T00:19:51;3.10;99.90
25328;DHT22;13279;51.300;12.394;2022-11-24T00:22:18;3.00;99.90
25328;DHT22;13279;51.300;12.394;2022-11-24T00:24:46;3.00;99.90
25328;DHT22;13279;51.300;12.394;2022-11-24T00:27:15;3.00;99.90
25328;DHT22;13279;51.300;12.394;2022-11-24T00:29:42;2.90;99.90
25328;DHT22;13279;51.300;12.394;2022-11-24T00:32:10;2.90;99.90
25328;DHT22;13279;51.300;12.394;2022-11-24T00:34:38;2.90;99.90
25328;DHT22;13279;51.300;12.394;2022-11-24T00:37:05;2.90;99.90
25328;DHT22;13279;51.300;12.394;2022-11-24T00:39:33;2.80;99.90
25328;DHT22;13279;51.300;12.394;2022-11-24T00:42:00;2.80;99.90
25328;DHT22;13279;51.300;12.394;2022-11-24T00:44:29;2.80;99.90
25328;DHT22;13279;51.300;12.394;2022-11-24T00:46:57;2.80;99.90
25328;DHT22;13279;51.300;12.394;2022-11-24T00:49:24;2.80;99.90
25328;DHT22;13279;51.300;12.394;2022-11-24T00:51:52;2.80;99.90
25328;DHT22;13279;51.300;12.394;2022-11-24T00:54:19;2.80;99.90
25328;DHT22;13279;51.300;12.394;2022-11-24T00:56:47;2.80;99.90
25328;DHT22;13279;51.300;12.394;2022-11-24T00:59:14;2.80;99.90
25328;DHT22;13279;51.300;12.394;2022-11-24T01:01:43;2.80;99.90
25328;DHT22;13279;51.300;12.394;2022-11-24T01:04:11;2.80;99.90
25328;DHT22;13279;51.300;12.394;2022-11-24T01:06:38;2.80;99.90
25328;DHT22;13279;51.300;12.394;2022-11-24T01:09:06;2.80;99.90
25328;DHT22;13279;51.300;12.394;2022-11-24T01:11:34;2.90;99.90
25328;DHT22;13279;51.300;12.394;2022-11-24T01:14:16;2.80;99.90
25328;DHT22;13279;51.300;12.394;2022-11-24T01:16:44;2.80;99.90
25328;DHT22;13279;51.300;12.394;2022-11-24T01:19:12;2.80;99.90
25328;DHT22;13279;51.300;12.394;2022-11-24T01:21:39;2.80;99.90
25328;DHT22;13279;51.300;12.394;2022-11-24T01:24:07;2.80;99.90
25328;DHT22;13279;51.300;12.394;2022-11-24T01:26:35;2.80;99.90
25328;DHT22;13279;51.300;12.394;2022-11-24T01:29:03;2.80;99.90
25328;DHT22;13279;51.300;12.394;2022-11-24T01:31:31;2.80;99.90
25328;DHT22;13279;51.300;12.394;2022-11-24T01:34:00;2.80;99.90
25328;DHT22;13279;51.300;12.394;2022-11-24T01:36:27;2.80;99.90
25328;DHT22;13279;51.300;12.394;2022-11-24T01:38:55;2.80;99.90
25328;DHT22;13279;51.300;12.394;2022-11-24T01:41:23;2.80;99.90
25328;DHT22;13279;51.300;12.394;2022-11-24T01:43:53;2.80;99.90
25328;DHT22;13279;51.300;12.394;2022-11-24T01:46:23;2.90;99.90
25328;DHT22;13279;51.300;12.394;2022-11-24T01:49:00;2.90;99.90
25328;DHT22;13279;51.300;12.394;2022-11-24T01:51:32;2.90;99.90
25328;DHT22;13279;51.300;12.394;2022-11-24T01:54:03;2.90;99.90
25328;DHT22;13279;51.300;12.394;2022-11-24T01:56:34;2.90;99.90
25328;DHT22;13279;51.300;12.394;2022-11-24T01:59:05;2.90;99.90
25328;DHT22;13279;51.300;12.394;2022-11-24T02:01:33;2.90;99.90
25328;DHT22;13279;51.300;12.394;2022-11-24T02:04:04;2.90;99.90
25328;DHT22;13279;51.300;12.394;2022-11-24T02:06:34;2.90;99.90
25328;DHT22;13279;51.300;12.394;2022-11-24T02:09:07;2.90;99.90
25328;DHT22;13279;51.300;12.394;2022-11-24T02:11:38;2.90;99.90
25328;DHT22;13279;51.300;12.394;2022-11-24T02:14:08;2.90;99.90
25328;DHT22;13279;51.300;12.394;2022-11-24T02:16:37;2.80;99.90
25328;DHT22;13279;51.300;12.394;2022-11-24T02:19:13;2.80;99.90
25328;DHT22;13279;51.300;12.394;2022-11-24T02:21:44;2.90;99.90
25328;DHT22;13279;51.300;12.394;2022-11-24T02:24:17;2.80;99.90
25328;DHT22;13279;51.300;12.394;2022-11-24T02:26:49;2.90;99.90
25328;DHT22;13279;51.300;12.394;2022-11-24T02:29:17;2.90;99.90
25328;DHT22;13279;51.300;12.394;2022-11-24T02:31:48;2.90;99.90
25328;DHT22;13279;51.300;12.394;2022-11-24T02:34:16;2.90;99.90
25328;DHT22;13279;51.300;12.394;2022-11-24T02:36:43;2.90;99.90
25328;DHT22;13279;51.300;12.394;2022-11-24T02:39:11;2.90;99.90
25328;DHT22;13279;51.300;12.394;2022-11-24T02:41:39;2.90;99.90
25328;DHT22;13279;51.300;12.394;2022-11-24T02:44:10;2.90;99.90
25328;DHT22;13279;51.300;12.394;2022-11-24T02:46:40;2.90;99.90
25328;DHT22;13279;51.300;12.394;2022-11-24T02:49:07;3.00;99.90
25328;DHT22;13279;51.300;12.394;2022-11-24T02:51:34;3.00;99.90
25328;DHT22;13279;51.300;12.394;2022-11-24T02:54:02;3.00;99.90
25328;DHT22;13279;51.300;12.394;2022-11-24T02:56:30;3.00;99.90
25328;DHT22;13279;51.300;12.394;2022-11-24T02:58:57;3.00;99.90
25328;DHT22;13279;51.300;12.394;2022-11-24T03:01:26;3.00;99.90
25328;DHT22;13279;51.300;12.394;2022-11-24T03:03:53;3.00;99.90
25328;DHT22;13279;51.300;12.394;2022-11-24T03:06:21;3.00;99.90
25328;DHT22;13279;51.300;12.394;2022-11-24T03:08:48;3.00;99.90
25328;DHT22;13279;51.300;12.394;2022-11-24T03:11:15;3.00;99.90
25328;DHT22;13279;51.300;12.394;2022-11-24T03:13:43;3.10;99.90
25328;DHT22;13279;51.300;12.394;2022-11-24T03:16:10;3.10;99.90
25328;DHT22;13279;51.300;12.394;2022-11-24T03:18:39;3.10;99.90
25328;DHT22;13279;51.300;12.394;2022-11-24T03:21:07;3.10;99.90
25328;DHT22;13279;51.300;12.394;2022-11-24T03:23:34;3.10;99.90
25328;DHT22;13279;51.300;12.394;2022-11-24T03:26:08;3.10;99.90
25328;DHT22;13279;51.300;12.394;2022-11-24T03:28:36;3.20;99.90
25328;DHT22;13279;51.300;12.394;2022-11-24T03:31:03;3.20;99.90
25328;DHT22;13279;51.300;12.394;2022-11-24T03:33:31;3.20;99.90
25328;DHT22;13279;51.300;12.394;2022-11-24T03:36:00;3.30;99.90
25328;DHT22;13279;51.300;12.394;2022-11-24T03:38:28;3.30;99.90
25328;DHT22;13279;51.300;12.394;2022-11-24T03:40:55;3.30;99.90
25328;DHT22;13279;51.300;12.394;2022-11-24T03:43:23;3.30;99.90
25328;DHT22;13279;51.300;12.394;2022-11-24T03:45:50;3.30;99.90
25328;DHT22;13279;51.300;12.394;2022-11-24T03:48:18;3.30;99.90
25328;DHT22;13279;51.300;12.394;2022-11-24T03:50:52;3.30;99.90
25328;DHT22;13279;51.300;12.394;2022-11-24T03:53:23;3.40;99.90
25328;DHT22;13279;51.300;12.394;2022-11-24T03:55:51;3.40;99.90
25328;DHT22;13279;51.300;12.394;2022-11-24T03:58:18;3.40;99.90
25328;DHT22;13279;51.300;12.394;2022-11-24T04:00:47;3.40;99.90
25328;DHT22;13279;51.300;12.394;2022-11-24T04:03:15;3.40;99.90
25328;DHT22;13279;51.300;12.394;2022-11-24T04:05:44;3.50;99.90
25328;DHT22;13279;51.300;12.394;2022-11-24T04:08:11;3.50;99.90
25328;DHT22;13279;51.300;12.394;2022-11-24T04:10:40;3.50;99.90
25328;DHT22;13279;51.300;12.394;2022-11-24T04:13:11;3.60;99.90
25328;DHT22;13279;51.300;12.394;2022-11-24T04:15:38;3.60;99.90
25328;DHT22;13279;51.300;12.394;2022-11-24T04:18:06;3.60;99.90
25328;DHT22;13279;51.300;12.394;2022-11-24T04:20:35;3.70;99.90
25328;DHT22;13279;51.300;12.394;2022-11-24T04:23:03;3.70;99.90
25328;DHT22;13279;51.300;12.394;2022-11-24T04:25:30;3.70;99.90
25328;DHT22;13279;51.300;12.394;2022-11-24T04:27:59;3.70;99.90
25328;DHT22;13279;51.300;12.394;2022-11-24T04:30:28;3.80;99.90
25328;DHT22;13279;51.300;12.394;2022-11-24T04:32:56;3.80;99.90
25328;DHT22;13279;51.300;12.394;2022-11-24T04:35:23;3.80;99.90
25328;DHT22;13279;51.300;12.394;2022-11-24T04:37:51;3.80;99.90
25328;DHT22;13279;51.300;12.394;2022-11-24T04:40:19;3.80;99.90
25328;DHT22;13279;51.300;12.394;2022-11-24T04:42:52;3.80;99.90
25328;DHT22;13279;51.300;12.394;2022-11-24T04:45:23;3.80;99.90
25328;DHT22;13279;51.300;12.394;2022-11-24T04:47:50;3.70;99.90
25328;DHT22;13279;51.300;12.394;2022-11-24T04:50:17;3.70;99.90
25328;DHT22;13279;51.300;12.394;2022-11-24T04:52:45;3.70;99.90
25328;DHT22;13279;51.300;12.394;2022-11-24T04:55:13;3.70;99.90
25328;DHT22;13279;51.300;12.394;2022-11-24T04:57:41;3.70;99.90
25328;DHT22;13279;51.300;12.394;2022-11-24T05:00:09;3.70;99.90
25328;DHT22;13279;51.300;12.394;2022-11-24T05:02:38;3.80;99.90
25328;DHT22;13279;51.300;12.394;2022-11-24T05:05:06;3.70;99.90
25328;DHT22;13279;51.300;12.394;2022-11-24T05:07:33;3.80;99.90
25328;DHT22;13279;51.300;12.394;2022-11-24T05:10:01;3.80;99.90
25328;DHT22;13279;51.300;12.394;2022-11-24T05:12:53;3.90;99.90
25328;DHT22;13279;51.300;12.394;2022-11-24T05:15:22;3.90;99.90
25328;DHT22;13279;51.300;12.394;2022-11-24T05:17:51;4.00;99.90
25328;DHT22;13279;51.300;12.394;2022-11-24T05:20:19;4.00;99.90
25328;DHT22;13279;51.300;12.394;2022-11-24T05:22:47;4.00;99.90
25328;DHT22;13279;51.300;12.394;2022-11-24T05:25:15;4.00;99.90
25328;DHT22;13279;51.300;12.394;2022-11-24T05:27:43;4.10;99.90
25328;DHT22;13279;51.300;12.394;2022-11-24T05:30:11;4.10;99.90
25328;DHT22;13279;51.300;12.394;2022-11-24T05:32:39;4.10;99.90
25328;DHT22;13279;51.300;12.394;2022-11-24T05:35:08;4.20;99.90
25328;DHT22;13279;51.300;12.394;2022-11-24T05:37:37;4.20;99.90
25328;DHT22;13279;51.300;12.394;2022-11-24T05:40:05;4.20;99.90
25328;DHT22;13279;51.300;12.394;2022-11-24T05:42:33;4.20;99.90
25328;DHT22;13279;51.300;12.394;2022-11-24T05:45:09;4.20;99.90
25328;DHT22;13279;51.300;12.394;2022-11-24T05:47:37;4.30;99.90
25328;DHT22;13279;51.300;12.394;2022-11-24T05:50:08;4.30;99.90
25328;DHT22;13279;51.300;12.394;2022-11-24T05:52:37;4.30;99.90
25328;DHT22;13279;51.300;12.394;2022-11-24T05:55:06;4.30;99.90
25328;DHT22;13279;51.300;12.394;2022-11-24T05:57:34;4.40;99.90
25328;DHT22;13279;51.300;12.394;2022-11-24T06:00:03;4.30;99.90
25328;DHT22;13279;51.300;12.394;2022-11-24T06:02:38;4.40;99.90
25328;DHT22;13279;51.300;12.394;2022-11-24T06:05:08;4.40;99.90
25328;DHT22;13279;51.300;12.394;2022-11-24T06:07:35;4.40;99.90
25328;DHT22;13279;51.300;12.394;2022-11-24T06:10:03;4.40;99.90
25328;DHT22;13279;51.300;12.394;2022-11-24T06:12:31;4.50;99.90
25328;DHT22;13279;51.300;12.394;2022-11-24T06:14:58;4.50;99.90
25328;DHT22;13279;51.300;12.394;2022-11-24T06:17:26;4.50;99.90
25328;DHT22;13279;51.300;12.394;2022-11-24T06:19:54;4.50;99.90
25328;DHT22;13279;51.300;12.394;2022-11-24T06:22:22;4.50;99.90
25328;DHT22;13279;51.300;12.394;2022-11-24T06:24:50;4.50;99.90
25328;DHT22;13279;51.300;12.394;2022-11-24T06:27:17;4.50;99.90
25328;DHT22;13279;51.300;12.394;2022-11-24T06:29:45;4.60;99.90
25328;DHT22;13279;51.300;12.394;2022-11-24T06:32:13;4.60;99.90
25328;DHT22;13279;51.300;12.394;2022-11-24T06:34:41;4.60;99.90
25328;DHT22;13279;51.300;12.394;2022-11-24T06:37:09;4.60;99.90
25328;DHT22;13279;51.300;12.394;2022-11-24T06:39:38;4.60;99.90
25328;DHT22;13279;51.300;12.394;2022-11-24T06:42:06;4.70;99.90
25328;DHT22;13279;51.300;12.394;2022-11-24T06:44:34;4.70;99.90
25328;DHT22;13279;51.300;12.394;2022-11-24T06:47:01;4.70;99.90
25328;DHT22;13279;51.300;12.394;2022-11-24T06:49:29;4.70;99.90
25328;DHT22;13279;51.300;12.394;2022-11-24T06:51:56;4.70;99.90
25328;DHT22;13279;51.300;12.394;2022-11-24T06:54:24;4.80;99.90
25328;DHT22;13279;51.300;12.394;2022-11-24T06:56:56;4.80;99.90
25328;DHT22;13279;51.300;12.394;2022-11-24T06:59:24;4.80;99.90
25328;DHT22;13279;51.300;12.394;2022-11-24T07:01:52;4.90;99.90
25328;DHT22;13279;51.300;12.394;2022-11-24T07:04:20;4.90;99.90
25328;DHT22;13279;51.300;12.394;2022-11-24T07:06:47;4.90;99.90
25328;DHT22;13279;51.300;12.394;2022-11-24T07:09:15;4.90;99.90
25328;DHT22;13279;51.300;12.394;2022-11-24T07:11:43;5.00;99.90
25328;DHT22;13279;51.300;12.394;2022-11-24T07:14:12;5.00;99.90
25328;DHT22;13279;51.300;12.394;2022-11-24T07:16:39;5.00;99.90
25328;DHT22;13279;51.300;12.394;2022-11-24T07:19:08;5.00;99.90
25328;DHT22;13279;51.300;12.394;2022-11-24T07:21:35;5.10;99.90
25328;DHT22;13279;51.300;12.394;2022-11-24T07:24:04;5.10;99.90
25328;DHT22;13279;51.300;12.394;2022-11-24T07:26:32;5.20;99.90
25328;DHT22;13279;51.300;12.394;2022-11-24T07:29:02;5.20;99.90
25328;DHT22;13279;51.300;12.394;2022-11-24T07:31:32;5.20;99.90
25328;DHT22;13279;51.300;12.394;2022-11-24T07:33:59;5.30;99.90
25328;DHT22;13279;51.300;12.394;2022-11-24T07:36:27;5.20;99.90
25328;DHT22;13279;51.300;12.394;2022-11-24T07:38:55;5.30;99.90
25328;DHT22;13279;51.300;12.394;2022-11-24T07:41:22;5.40;99.90
25328;DHT22;13279;51.300;12.394;2022-11-24T07:43:50;5.40;99.90
25328;DHT22;13279;51.300;12.394;2022-11-24T07:46:19;5.40;99.90
25328;DHT22;13279;51.300;12.394;2022-11-24T07:48:48;5.40;99.90
25328;DHT22;13279;51.300;12.394;2022-11-24T07:51:16;5.50;99.90
25328;DHT22;13279;51.300;12.394;2022-11-24T07:53:44;5.50;99.90
25328;DHT22;13279;51.300;12.394;2022-11-24T07:56:12;5.50;99.90
25328;DHT22;13279;51.300;12.394;2022-11-24T07:58:40;5.50;99.90
25328;DHT22;13279;51.300;12.394;2022-11-24T08:01:09;5.50;99.90
25328;DHT22;13279;51.300;12.394;2022-11-24T08:03:37;5.60;99.90
25328;DHT22;13279;51.300;12.394;2022-11-24T08:06:06;5.60;99.90
25328;DHT22;13279;51.300;12.394;2022-11-24T08:08:34;5.60;99.90
25328;DHT22;13279;51.300;12.394;2022-11-24T08:11:06;5.60;99.90
25328;DHT22;13279;51.300;12.394;2022-11-24T08:13:35;5.70;99.90
25328;DHT22;13279;51.300;12.394;2022-11-24T08:16:04;5.70;99.90
25328;DHT22;13279;51.300;12.394;2022-11-24T08:18:31;5.80;99.90
25328;DHT22;13279;51.300;12.394;2022-11-24T08:21:01;5.80;99.90
25328;DHT22;13279;51.300;12.394;2022-11-24T08:23:31;5.80;99.90
25328;DHT22;13279;51.300;12.394;2022-11-24T08:26:02;5.90;99.90
25328;DHT22;13279;51.300;12.394;2022-11-24T08:28:30;5.90;99.90
25328;DHT22;13279;51.300;12.394;2022-11-24T08:31:02;5.90;99.90
25328;DHT22;13279;51.300;12.394;2022-11-24T08:33:31;6.00;99.90
25328;DHT22;13279;51.300;12.394;2022-11-24T08:36:03;6.00;99.90
25328;DHT22;13279;51.300;12.394;2022-11-24T08:38:32;6.00;99.90
25328;DHT22;13279;51.300;12.394;2022-11-24T08:41:00;6.10;99.90
25328;DHT22;13279;51.300;12.394;2022-11-24T08:43:28;6.10;99.90
25328;DHT22;13279;51.300;12.394;2022-11-24T08:45:59;6.20;99.90
25328;DHT22;13279;51.300;12.394;2022-11-24T08:48:27;6.20;99.90
25328;DHT22;13279;51.300;12.394;2022-11-24T08:50:54;6.30;99.90
25328;DHT22;13279;51.300;12.394;2022-11-24T08:53:22;6.30;99.90
25328;DHT22;13279;51.300;12.394;2022-11-24T08:55:51;6.40;99.90
25328;DHT22;13279;51.300;12.394;2022-11-24T08:58:18;6.40;99.90
25328;DHT22;13279;51.300;12.394;2022-11-24T09:00:46;6.50;99.90
25328;DHT22;13279;51.300;12.394;2022-11-24T09:03:13;6.50;99.90
25328;DHT22;13279;51.300;12.394;2022-11-24T09:05:41;6.60;99.90
25328;DHT22;13279;51.300;12.394;2022-11-24T09:08:09;6.70;99.90
25328;DHT22;13279;51.300;12.394;2022-11-24T09:10:36;6.70;99.90
25328;DHT22;13279;51.300;12.394;2022-11-24T09:13:05;6.80;99.90
25328;DHT22;13279;51.300;12.394;2022-11-24T09:15:34;6.80;99.90
25328;DHT22;13279;51.300;12.394;2022-11-24T09:18:02;6.90;99.90
25328;DHT22;13279;51.300;12.394;2022-11-24T09:20:30;7.00;99.90
25328;DHT22;13279;51.300;12.394;2022-11-24T09:22:58;7.00;99.90
25328;DHT22;13279;51.300;12.394;2022-11-24T09:25:33;7.10;99.90
25328;DHT22;13279;51.300;12.394;2022-11-24T09:28:00;7.10;99.90
25328;DHT22;13279;51.300;12.394;2022-11-24T09:30:30;7.10;99.90
25328;DHT22;13279;51.300;12.394;2022-11-24T09:32:57;7.10;99.90
25328;DHT22;13279;51.300;12.394;2022-11-24T09:35:24;7.10;99.90
25328;DHT22;13279;51.300;12.394;2022-11-24T09:37:52;7.10;99.90
25328;DHT22;13279;51.300;12.394;2022-11-24T09:40:20;7.20;99.90
25328;DHT22;13279;51.300;12.394;2022-11-24T09:42:55;7.10;99.90
25328;DHT22;13279;51.300;12.394;2022-11-24T09:45:41;7.20;99.90
25328;DHT22;13279;51.300;12.394;2022-11-24T09:48:17;7.20;99.90
25328;DHT22;13279;51.300;12.394;2022-11-24T09:50:47;7.20;99.90
25328;DHT22;13279;51.300;12.394;2022-11-24T09:53:19;7.20;99.90
25328;DHT22;13279;51.300;12.394;2022-11-24T09:55:49;7.30;99.90
25328;DHT22;13279;51.300;12.394;2022-11-24T09:58:30;7.30;99.90
25328;DHT22;13279;51.300;12.394;2022-11-24T10:01:04;7.30;99.90
25328;DHT22;13279;51.300;12.394;2022-11-24T10:03:35;7.40;99.90
25328;DHT22;13279;51.300;12.394;2022-11-24T10:06:22;7.40;99.90
25328;DHT22;13279;51.300;12.394;2022-11-24T10:09:13;7.50;99.90
25328;DHT22;13279;51.300;12.394;2022-11-24T10:11:55;7.50;99.90
25328;DHT22;13279;51.300;12.394;2022-11-24T10:14:52;7.60;99.90
25328;DHT22;13279;51.300;12.394;2022-11-24T10:17:37;7.70;99.90
25328;DHT22;13279;51.300;12.394;2022-11-24T10:20:13;7.70;99.90
25328;DHT22;13279;51.300;12.394;2022-11-24T10:22:55;7.80;99.90
25328;DHT22;13279;51.300;12.394;2022-11-24T10:25:25;7.90;99.90
25328;DHT22;13279;51.300;12.394;2022-11-24T10:28:00;7.90;99.90
25328;DHT22;13279;51.300;12.394;2022-11-24T10:30:28;7.90;99.90
25328;DHT22;13279;51.300;12.394;2022-11-24T10:33:01;7.90;99.90
25328;DHT22;13279;51.300;12.394;2022-11-24T10:35:36;7.90;99.90
25328;DHT22;13279;51.300;12.394;2022-11-24T10:38:13;7.90;99.90
25328;DHT22;13279;51.300;12.394;2022-11-24T10:40:45;7.90;99.90
25328;DHT22;13279;51.300;12.394;2022-11-24T10:43:14;7.90;99.90
25328;DHT22;13279;51.300;12.394;2022-11-24T10:45:42;7.90;99.90
25328;DHT22;13279;51.300;12.394;2022-11-24T10:48:18;7.90;99.90
25328;DHT22;13279;51.300;12.394;2022-11-24T10:50:47;7.90;99.90
25328;DHT22;13279;51.300;12.394;2022-11-24T10:53:18;8.00;99.90
25328;DHT22;13279;51.300;12.394;2022-11-24T10:55:57;8.10;99.90
25328;DHT22;13279;51.300;12.394;2022-11-24T10:58:26;8.20;99.90
25328;DHT22;13279;51.300;12.394;2022-11-24T11:00:55;8.30;99.90
25328;DHT22;13279;51.300;12.394;2022-11-24T11:03:26;8.40;99.90
25328;DHT22;13279;51.300;12.394;2022-11-24T11:06:11;8.40;99.90
25328;DHT22;13279;51.300;12.394;2022-11-24T11:08:39;8.50;99.90
25328;DHT22;13279;51.300;12.394;2022-11-24T11:11:18;8.50;99.90
25328;DHT22;13279;51.300;12.394;2022-11-24T11:13:48;8.50;99.90
25328;DHT22;13279;51.300;12.394;2022-11-24T11:16:32;8.50;99.90
25328;DHT22;13279;51.300;12.394;2022-11-24T11:19:02;8.50;99.90
25328;DHT22;13279;51.300;12.394;2022-11-24T11:21:33;8.50;99.90
25328;DHT22;13279;51.300;12.394;2022-11-24T11:24:03;8.50;99.90
25328;DHT22;13279;51.300;12.394;2022-11-24T11:26:34;8.40;99.90
25328;DHT22;13279;51.300;12.394;2022-11-24T11:29:12;8.40;99.90
25328;DHT22;13279;51.300;12.394;2022-11-24T11:31:40;8.50;99.90
25328;DHT22;13279;51.300;12.394;2022-11-24T11:34:17;8.40;99.90
25328;DHT22;13279;51.300;12.394;2022-11-24T11:36:48;8.40;99.90
25328;DHT22;13279;51.300;12.394;2022-11-24T11:39:26;8.40;99.90
25328;DHT22;13279;51.300;12.394;2022-11-24T11:42:05;8.50;99.90
25328;DHT22;13279;51.300;12.394;2022-11-24T11:44:37;8.50;99.90
25328;DHT22;13279;51.300;12.394;2022-11-24T11:47:16;8.60;99.90
25328;DHT22;13279;51.300;12.394;2022-11-24T11:49:48;8.60;99.90
25328;DHT22;13279;51.300;12.394;2022-11-24T11:52:53;8.70;99.90
25328;DHT22;13279;51.300;12.394;2022-11-24T11:55:44;8.70;99.90
25328;DHT22;13279;51.300;12.394;2022-11-24T11:58:30;8.80;99.90
25328;DHT22;13279;51.300;12.394;2022-11-24T12:01:08;8.90;99.90
25328;DHT22;13279;51.300;12.394;2022-11-24T12:03:48;9.00;99.90
25328;DHT22;13279;51.300;12.394;2022-11-24T12:06:42;9.00;99.90
25328;DHT22;13279;51.300;12.394;2022-11-24T12:09:21;9.10;99.90
25328;DHT22;13279;51.300;12.394;2022-11-24T12:12:07;9.10;99.90
25328;DHT22;13279;51.300;12.394;2022-11-24T12:14:45;9.30;99.90
25328;DHT22;13279;51.300;12.394;2022-11-24T12:17:25;9.40;99.90
25328;DHT22;13279;51.300;12.394;2022-11-24T12:20:06;9.50;99.90
25328;DHT22;13279;51.300;12.394;2022-11-24T12:22:45;9.60;99.90
25328;DHT22;13279;51.300;12.394;2022-11-24T12:25:24;9.70;99.90
25328;DHT22;13279;51.300;12.394;2022-11-24T12:28:02;9.70;99.90
25328;DHT22;13279;51.300;12.394;2022-11-24T12:30:39;9.80;99.90
25328;DHT22;13279;51.300;12.394;2022-11-24T12:33:28;9.80;99.90
25328;DHT22;13279;51.300;12.394;2022-11-24T12:36:09;9.80;99.90
25328;DHT22;13279;51.300;12.394;2022-11-24T12:38:50;9.90;99.90
25328;DHT22;13279;51.300;12.394;2022-11-24T12:41:25;9.90;99.90
25328;DHT22;13279;51.300;12.394;2022-11-24T12:43:57;9.90;99.90
25328;DHT22;13279;51.300;12.394;2022-11-24T12:46:33;9.90;99.90
25328;DHT22;13279;51.300;12.394;2022-11-24T12:49:12;10.00;99.90
25328;DHT22;13279;51.300;12.394;2022-11-24T12:51:48;10.00;99.90
25328;DHT22;13279;51.300;12.394;2022-11-24T12:54:19;10.00;99.90
25328;DHT22;13279;51.300;12.394;2022-11-24T12:56:52;10.00;99.90
25328;DHT22;13279;51.300;12.394;2022-11-24T12:59:29;10.00;99.90
25328;DHT22;13279;51.300;12.394;2022-11-24T13:02:08;10.10;99.90
25328;DHT22;13279;51.300;12.394;2022-11-24T13:04:45;10.10;99.90
25328;DHT22;13279;51.300;12.394;2022-11-24T13:07:16;10.10;99.90
25328;DHT22;13279;51.300;12.394;2022-11-24T13:13:04;10.10;99.90
25328;DHT22;13279;51.300;12.394;2022-11-24T13:16:14;10.10;99.90
25328;DHT22;13279;51.300;12.394;2022-11-24T13:18:46;10.20;99.90
25328;DHT22;13279;51.300;12.394;2022-11-24T13:24:43;10.20;99.90
25328;DHT22;13279;51.300;12.394;2022-11-24T13:27:44;10.10;99.90
25328;DHT22;13279;51.300;12.394;2022-11-24T13:33:28;9.90;99.90
25328;DHT22;13279;51.300;12.394;2022-11-24T13:36:33;9.90;99.90
25328;DHT22;13279;51.300;12.394;2022-11-24T13:39:03;9.80;99.90
25328;DHT22;13279;51.300;12.394;2022-11-24T13:44:48;9.70;99.90
25328;DHT22;13279;51.300;12.394;2022-11-24T13:47:36;9.70;99.90
25328;DHT22;13279;51.300;12.394;2022-11-24T13:50:10;9.70;99.90
25328;DHT22;13279;51.300;12.394;2022-11-24T13:52:45;9.60;99.90
25328;DHT22;13279;51.300;12.394;2022-11-24T13:55:25;9.60;99.90
25328;DHT22;13279;51.300;12.394;2022-11-24T13:57:57;9.60;99.90
25328;DHT22;13279;51.300;12.394;2022-11-24T14:00:27;9.60;99.90
25328;DHT22;13279;51.300;12.394;2022-11-24T14:02:59;9.60;99.90
25328;DHT22;13279;51.300;12.394;2022-11-24T14:05:35;9.60;99.90
25328;DHT22;13279;51.300;12.394;2022-11-24T14:08:05;9.50;99.90
25328;DHT22;13279;51.300;12.394;2022-11-24T14:10:36;9.50;99.90
25328;DHT22;13279;51.300;12.394;2022-11-24T14:13:22;9.50;99.90
25328;DHT22;13279;51.300;12.394;2022-11-24T14:15:59;9.40;99.90
25328;DHT22;13279;51.300;12.394;2022-11-24T14:18:27;9.40;99.90
25328;DHT22;13279;51.300;12.394;2022-11-24T14:20:59;9.40;99.90
25328;DHT22;13279;51.300;12.394;2022-11-24T14:23:27;9.30;99.90
25328;DHT22;13279;51.300;12.394;2022-11-24T14:25:55;9.30;99.90
25328;DHT22;13279;51.300;12.394;2022-11-24T14:28:24;9.20;99.90
25328;DHT22;13279;51.300;12.394;2022-11-24T14:31:05;9.20;99.90
25328;DHT22;13279;51.300;12.394;2022-11-24T14:33:34;9.40;99.90
25328;DHT22;13279;51.300;12.394;2022-11-24T14:36:03;9.30;99.90
25328;DHT22;13279;51.300;12.394;2022-11-24T14:38:31;9.30;99.90
25328;DHT22;13279;51.300;12.394;2022-11-24T14:41:13;9.30;99.90
25328;DHT22;13279;51.300;12.394;2022-11-24T14:43:42;9.30;99.90
25328;DHT22;13279;51.300;12.394;2022-11-24T14:46:17;9.20;99.90
25328;DHT22;13279;51.300;12.394;2022-11-24T14:48:47;9.20;99.90
25328;DHT22;13279;51.300;12.394;2022-11-24T14:51:20;9.20;99.90
25328;DHT22;13279;51.300;12.394;2022-11-24T14:53:51;9.20;99.90
25328;DHT22;13279;51.300;12.394;2022-11-24T14:56:25;9.20;99.90
25328;DHT22;13279;51.300;12.394;2022-11-24T14:58:54;9.20;99.90
25328;DHT22;13279;51.300;12.394;2022-11-24T15:01:29;9.20;99.90
25328;DHT22;13279;51.300;12.394;2022-11-24T15:04:11;9.10;99.90
25328;DHT22;13279;51.300;12.394;2022-11-24T15:06:41;9.10;99.90
25328;DHT22;13279;51.300;12.394;2022-11-24T15:09:25;9.00;99.90
25328;DHT22;13279;51.300;12.394;2022-11-24T15:11:56;9.00;99.90
25328;DHT22;13279;51.300;12.394;2022-11-24T15:14:36;8.90;99.90
25328;DHT22;13279;51.300;12.394;2022-11-24T15:17:05;8.90;99.90
25328;DHT22;13279;51.300;12.394;2022-11-24T15:19:34;8.80;99.90
25328;DHT22;13279;51.300;12.394;2022-11-24T15:22:33;8.80;99.90
25328;DHT22;13279;51.300;12.394;2022-11-24T15:25:01;8.80;99.90
25328;DHT22;13279;51.300;12.394;2022-11-24T15:27:29;8.80;99.90
25328;DHT22;13279;51.300;12.394;2022-11-24T15:29:57;8.80;99.90
25328;DHT22;13279;51.300;12.394;2022-11-24T15:32:24;8.70;99.90
25328;DHT22;13279;51.300;12.394;2022-11-24T15:34:52;8.70;99.90
25328;DHT22;13279;51.300;12.394;2022-11-24T15:37:20;8.70;99.90
25328;DHT22;13279;51.300;12.394;2022-11-24T15:39:49;8.70;99.90
25328;DHT22;13279;51.300;12.394;2022-11-24T15:42:17;8.70;99.90
25328;DHT22;13279;51.300;12.394;2022-11-24T15:44:44;8.70;99.90
25328;DHT22;13279;51.300;12.394;2022-11-24T15:47:12;8.60;99.90
25328;DHT22;13279;51.300;12.394;2022-11-24T15:49:39;8.60;99.90
25328;DHT22;13279;51.300;12.394;2022-11-24T15:52:07;8.60;99.90
25328;DHT22;13279;51.300;12.394;2022-11-24T15:54:34;8.60;99.90
25328;DHT22;13279;51.300;12.394;2022-11-24T15:57:04;8.60;99.90
25328;DHT22;13279;51.300;12.394;2022-11-24T15:59:31;8.60;99.90
25328;DHT22;13279;51.300;12.394;2022-11-24T16:02:01;8.60;99.90
25328;DHT22;13279;51.300;12.394;2022-11-24T16:04:36;8.70;99.90
25328;DHT22;13279;51.300;12.394;2022-11-24T16:07:51;8.70;99.90